sensor_id;sensor_type;location;lat;lon;timestamp;pressure;altitude;pressure_sealevel;temperature;humidity
78444;BME280;67739;52.986;8.894;2024-01-30T00:00:56;102865.75;;;2.58;90.65
78444;BME280;67739;52.986;8.894;2024-01-30T00:06:08;102859.50;;;2.54;90.71
78444;BME280;67739;52.986;8.894;2024-01-30T00:08:41;102860.34;;;2.52;90.70
78444;BME280;67739;52.986;8.894;2024-01-30T00:11:19;102868.25;;;2.50;90.52
78444;BME280;67739;52.986;8.894;2024-01-30T00:14:05;102863.78;;;2.47;90.85
78444;BME280;67739;52.986;8.894;2024-01-30T00:16:35;102880.53;;;2.46;90.88
78444;BME280;67739;52.986;8.894;2024-01-30T00:19:03;102867.25;;;2.43;90.54
78444;BME280;67739;52.986;8.894;2024-01-30T00:21:29;102874.28;;;2.41;90.66
78444;BME280;67739;52.986;8.894;2024-01-30T00:24:08;102866.31;;;2.40;90.62
78444;BME280;67739;52.986;8.894;2024-01-30T00:26:47;102866.25;;;2.37;90.75
78444;BME280;67739;52.986;8.894;2024-01-30T00:29:19;102857.38;;;2.35;90.92
78444;BME280;67739;52.986;8.894;2024-01-30T00:31:59;102871.44;;;2.32;90.76
78444;BME280;67739;52.986;8.894;2024-01-30T00:34:30;102860.84;;;2.31;90.65
78444;BME280;67739;52.986;8.894;2024-01-30T00:36:59;102859.94;;;2.29;90.85
78444;BME280;67739;52.986;8.894;2024-01-30T00:39:26;102862.53;;;2.27;90.76
78444;BME280;67739;52.986;8.894;2024-01-30T00:42:00;102866.91;;;2.25;90.67
78444;BME280;67739;52.986;8.894;2024-01-30T00:44:29;102866.88;;;2.24;90.80
78444;BME280;67739;52.986;8.894;2024-01-30T00:47:06;102863.31;;;2.22;91.02
78444;BME280;67739;52.986;8.894;2024-01-30T00:49:34;102864.16;;;2.21;90.69
78444;BME280;67739;52.986;8.894;2024-01-30T00:52:00;102865.00;;;2.18;90.87
78444;BME280;67739;52.986;8.894;2024-01-30T00:54:26;102853.50;;;2.18;90.90
78444;BME280;67739;52.986;8.894;2024-01-30T00:56:51;102857.91;;;2.17;90.69
78444;BME280;67739;52.986;8.894;2024-01-30T00:59:20;102848.19;;;2.15;91.03
78444;BME280;67739;52.986;8.894;2024-01-30T01:01:45;102853.44;;;2.13;90.65
78444;BME280;67739;52.986;8.894;2024-01-30T01:04:11;102855.16;;;2.11;90.78
78444;BME280;67739;52.986;8.894;2024-01-30T01:06:36;102850.72;;;2.10;91.15
78444;BME280;67739;52.986;8.894;2024-01-30T01:09:02;102851.59;;;2.09;90.71
78444;BME280;67739;52.986;8.894;2024-01-30T01:11:29;102848.91;;;2.07;91.01
78444;BME280;67739;52.986;8.894;2024-01-30T01:13:57;102841.81;;;2.06;90.82
78444;BME280;67739;52.986;8.894;2024-01-30T01:16:22;102840.94;;;2.06;90.89
78444;BME280;67739;52.986;8.894;2024-01-30T01:18:51;102844.44;;;2.05;90.92
78444;BME280;67739;52.986;8.894;2024-01-30T01:21:16;102844.41;;;2.03;91.07
78444;BME280;67739;52.986;8.894;2024-01-30T01:23:44;102842.63;;;2.02;90.97
78444;BME280;67739;52.986;8.894;2024-01-30T01:26:11;102832.88;;;2.00;90.82
78444;BME280;67739;52.986;8.894;2024-01-30T01:28:36;102844.34;;;1.99;90.75
78444;BME280;67739;52.986;8.894;2024-01-30T01:31:02;102833.72;;;1.97;90.85
78444;BME280;67739;52.986;8.894;2024-01-30T01:33:36;102831.91;;;1.95;91.16
78444;BME280;67739;52.986;8.894;2024-01-30T01:36:05;102836.28;;;1.94;91.32
78444;BME280;67739;52.986;8.894;2024-01-30T01:38:31;102827.44;;;1.92;90.79
78444;BME280;67739;52.986;8.894;2024-01-30T01:40:57;102827.41;;;1.91;91.02
78444;BME280;67739;52.986;8.894;2024-01-30T01:43:22;102822.06;;;1.89;91.09
78444;BME280;67739;52.986;8.894;2024-01-30T01:45:48;102811.47;;;1.89;91.13
78444;BME280;67739;52.986;8.894;2024-01-30T01:48:14;102819.38;;;1.88;91.23
78444;BME280;67739;52.986;8.894;2024-01-30T01:50:41;102813.22;;;1.87;91.07
78444;BME280;67739;52.986;8.894;2024-01-30T01:53:08;102810.56;;;1.86;90.93
78444;BME280;67739;52.986;8.894;2024-01-30T01:55:34;102807.03;;;1.85;90.99
78444;BME280;67739;52.986;8.894;2024-01-30T01:58:00;102809.66;;;1.85;91.42
78444;BME280;67739;52.986;8.894;2024-01-30T02:00:28;102814.91;;;1.84;91.12
78444;BME280;67739;52.986;8.894;2024-01-30T02:02:54;102806.09;;;1.83;91.06
78444;BME280;67739;52.986;8.894;2024-01-30T02:05:19;102816.66;;;1.83;91.47
78444;BME280;67739;52.986;8.894;2024-01-30T02:07:46;102808.69;;;1.82;91.28
78444;BME280;67739;52.986;8.894;2024-01-30T02:10:12;102810.50;;;1.83;91.40
78444;BME280;67739;52.986;8.894;2024-01-30T02:12:41;102802.50;;;1.81;91.32
78444;BME280;67739;52.986;8.894;2024-01-30T02:15:06;102809.56;;;1.81;91.04
78444;BME280;67739;52.986;8.894;2024-01-30T02:17:35;102806.91;;;1.81;91.35
78444;BME280;67739;52.986;8.894;2024-01-30T02:20:01;102806.91;;;1.81;91.25
78444;BME280;67739;52.986;8.894;2024-01-30T02:22:28;102797.19;;;1.80;91.11
78444;BME280;67739;52.986;8.894;2024-01-30T02:24:54;102804.28;;;1.81;91.43
78444;BME280;67739;52.986;8.894;2024-01-30T02:27:20;102798.09;;;1.80;91.20
78444;BME280;67739;52.986;8.894;2024-01-30T02:29:48;102798.09;;;1.80;91.39
78444;BME280;67739;52.986;8.894;2024-01-30T02:32:14;102792.75;;;1.78;91.40
78444;BME280;67739;52.986;8.894;2024-01-30T02:34:39;102790.09;;;1.78;91.48
78444;BME280;67739;52.986;8.894;2024-01-30T02:37:05;102794.50;;;1.78;91.20
78444;BME280;67739;52.986;8.894;2024-01-30T02:39:33;102780.38;;;1.77;91.39
78444;BME280;67739;52.986;8.894;2024-01-30T02:41:58;102779.50;;;1.77;91.41
78444;BME280;67739;52.986;8.894;2024-01-30T02:44:24;102775.94;;;1.76;91.18
78444;BME280;67739;52.986;8.894;2024-01-30T02:46:59;102771.53;;;1.75;91.27
78444;BME280;67739;52.986;8.894;2024-01-30T02:49:24;102768.88;;;1.75;91.27
78444;BME280;67739;52.986;8.894;2024-01-30T02:51:51;102764.44;;;1.74;91.46
78444;BME280;67739;52.986;8.894;2024-01-30T02:54:17;102760.03;;;1.75;91.17
78444;BME280;67739;52.986;8.894;2024-01-30T02:56:45;102759.16;;;1.74;91.51
78444;BME280;67739;52.986;8.894;2024-01-30T02:59:10;102754.72;;;1.73;91.25
78444;BME280;67739;52.986;8.894;2024-01-30T03:01:45;102753.84;;;1.73;91.19
78444;BME280;67739;52.986;8.894;2024-01-30T03:04:11;102745.88;;;1.71;91.35
78444;BME280;67739;52.986;8.894;2024-01-30T03:06:44;102748.50;;;1.70;91.44
78444;BME280;67739;52.986;8.894;2024-01-30T03:09:10;102752.00;;;1.69;91.27
78444;BME280;67739;52.986;8.894;2024-01-30T03:11:38;102746.72;;;1.69;91.10
78444;BME280;67739;52.986;8.894;2024-01-30T03:14:04;102750.22;;;1.68;91.13
78444;BME280;67739;52.986;8.894;2024-01-30T03:16:30;102753.72;;;1.67;91.08
78444;BME280;67739;52.986;8.894;2024-01-30T03:18:55;102749.28;;;1.66;91.32
78444;BME280;67739;52.986;8.894;2024-01-30T03:21:21;102752.78;;;1.65;91.14
78444;BME280;67739;52.986;8.894;2024-01-30T03:23:46;102744.81;;;1.63;91.29
78444;BME280;67739;52.986;8.894;2024-01-30T03:26:12;102748.34;;;1.62;91.28
78444;BME280;67739;52.986;8.894;2024-01-30T03:28:38;102750.09;;;1.62;91.15
78444;BME280;67739;52.986;8.894;2024-01-30T03:31:03;102740.31;;;1.59;91.26
78444;BME280;67739;52.986;8.894;2024-01-30T03:33:29;102734.16;;;1.59;91.13
78444;BME280;67739;52.986;8.894;2024-01-30T03:36:02;102736.78;;;1.57;91.36
78444;BME280;67739;52.986;8.894;2024-01-30T03:38:30;102735.00;;;1.56;91.44
78444;BME280;67739;52.986;8.894;2024-01-30T03:41:00;102735.00;;;1.56;91.26
78444;BME280;67739;52.986;8.894;2024-01-30T03:43:26;102729.72;;;1.56;91.49
78444;BME280;67739;52.986;8.894;2024-01-30T03:45:55;102727.97;;;1.57;91.76
78444;BME280;67739;52.986;8.894;2024-01-30T03:48:21;102723.53;;;1.56;91.54
78444;BME280;67739;52.986;8.894;2024-01-30T03:50:48;102725.28;;;1.55;91.44
78444;BME280;67739;52.986;8.894;2024-01-30T03:53:13;102724.44;;;1.56;91.87
78444;BME280;67739;52.986;8.894;2024-01-30T03:55:39;102723.53;;;1.56;91.64
78444;BME280;67739;52.986;8.894;2024-01-30T03:58:09;102721.78;;;1.56;91.70
78444;BME280;67739;52.986;8.894;2024-01-30T04:00:35;102725.28;;;1.55;91.83
78444;BME280;67739;52.986;8.894;2024-01-30T04:03:01;102726.16;;;1.54;91.76
78444;BME280;67739;52.986;8.894;2024-01-30T04:05:26;102715.56;;;1.54;91.75
78444;BME280;67739;52.986;8.894;2024-01-30T04:07:52;102721.72;;;1.53;91.66
78444;BME280;67739;52.986;8.894;2024-01-30T04:10:17;102726.97;;;1.52;91.72
78444;BME280;67739;52.986;8.894;2024-01-30T04:12:43;102734.00;;;1.51;91.73
78444;BME280;67739;52.986;8.894;2024-01-30T04:15:09;102721.66;;;1.50;91.49
78444;BME280;67739;52.986;8.894;2024-01-30T04:17:34;102718.09;;;1.50;91.66
78444;BME280;67739;52.986;8.894;2024-01-30T04:20:00;102726.91;;;1.49;91.66
78444;BME280;67739;52.986;8.894;2024-01-30T04:22:25;102728.66;;;1.48;91.75
78444;BME280;67739;52.986;8.894;2024-01-30T04:24:51;102718.06;;;1.48;91.58
78444;BME280;67739;52.986;8.894;2024-01-30T04:27:16;102721.56;;;1.47;91.67
78444;BME280;67739;52.986;8.894;2024-01-30T04:29:42;102723.38;;;1.48;92.00
78444;BME280;67739;52.986;8.894;2024-01-30T04:32:08;102715.38;;;1.45;91.62
78444;BME280;67739;52.986;8.894;2024-01-30T04:34:36;102710.97;;;1.46;91.46
78444;BME280;67739;52.986;8.894;2024-01-30T04:37:01;102704.78;;;1.45;92.01
78444;BME280;67739;52.986;8.894;2024-01-30T04:39:27;102714.47;;;1.45;91.92
78444;BME280;67739;52.986;8.894;2024-01-30T04:41:52;102708.31;;;1.44;91.77
78444;BME280;67739;52.986;8.894;2024-01-30T04:44:20;102703.94;;;1.46;92.01
78444;BME280;67739;52.986;8.894;2024-01-30T04:46:46;102702.22;;;1.48;92.00
78444;BME280;67739;52.986;8.894;2024-01-30T04:49:11;102711.06;;;1.50;92.19
78444;BME280;67739;52.986;8.894;2024-01-30T04:51:37;102709.34;;;1.52;92.01
78444;BME280;67739;52.986;8.894;2024-01-30T04:54:02;102706.78;;;1.55;92.26
78444;BME280;67739;52.986;8.894;2024-01-30T04:56:28;102706.78;;;1.55;92.30
78444;BME280;67739;52.986;8.894;2024-01-30T04:58:53;102702.41;;;1.57;92.52
78444;BME280;67739;52.986;8.894;2024-01-30T05:01:19;102694.47;;;1.59;92.47
78444;BME280;67739;52.986;8.894;2024-01-30T05:03:44;102709.50;;;1.61;92.66
78444;BME280;67739;52.986;8.894;2024-01-30T05:06:09;102690.09;;;1.61;92.70
78444;BME280;67739;52.986;8.894;2024-01-30T05:08:35;102703.38;;;1.62;92.61
78444;BME280;67739;52.986;8.894;2024-01-30T05:11:05;102694.56;;;1.63;92.59
78444;BME280;67739;52.986;8.894;2024-01-30T05:13:31;102690.16;;;1.64;92.70
78444;BME280;67739;52.986;8.894;2024-01-30T05:15:56;102697.28;;;1.66;92.83
78444;BME280;67739;52.986;8.894;2024-01-30T05:18:22;102692.03;;;1.68;92.52
78444;BME280;67739;52.986;8.894;2024-01-30T05:20:50;102688.50;;;1.69;92.66
78444;BME280;67739;52.986;8.894;2024-01-30T05:23:16;102685.88;;;1.69;92.90
78444;BME280;67739;52.986;8.894;2024-01-30T05:25:41;102679.75;;;1.71;92.71
78444;BME280;67739;52.986;8.894;2024-01-30T05:28:07;102685.06;;;1.73;93.03
78444;BME280;67739;52.986;8.894;2024-01-30T05:30:35;102685.06;;;1.74;93.14
78444;BME280;67739;52.986;8.894;2024-01-30T05:33:00;102685.09;;;1.76;93.02
78444;BME280;67739;52.986;8.894;2024-01-30T05:35:26;102682.47;;;1.77;93.01
78444;BME280;67739;52.986;8.894;2024-01-30T05:37:51;102683.38;;;1.78;93.13
78444;BME280;67739;52.986;8.894;2024-01-30T05:40:21;102678.97;;;1.78;93.01
78444;BME280;67739;52.986;8.894;2024-01-30T05:42:47;102679.88;;;1.79;92.81
78444;BME280;67739;52.986;8.894;2024-01-30T05:45:13;102690.47;;;1.81;92.88
78444;BME280;67739;52.986;8.894;2024-01-30T05:47:41;102672.78;;;1.78;93.10
78444;BME280;67739;52.986;8.894;2024-01-30T05:50:06;102678.13;;;1.80;92.80
78444;BME280;67739;52.986;8.894;2024-01-30T05:52:32;102679.84;;;1.77;92.82
78444;BME280;67739;52.986;8.894;2024-01-30T05:55:00;102687.81;;;1.79;93.06
78444;BME280;67739;52.986;8.894;2024-01-30T05:57:25;102682.50;;;1.79;92.81
78444;BME280;67739;52.986;8.894;2024-01-30T05:59:53;102686.03;;;1.78;92.96
78444;BME280;67739;52.986;8.894;2024-01-30T06:02:19;102690.41;;;1.77;92.84
78444;BME280;67739;52.986;8.894;2024-01-30T06:04:44;102688.66;;;1.78;93.21
78444;BME280;67739;52.986;8.894;2024-01-30T06:07:10;102686.00;;;1.76;92.67
78444;BME280;67739;52.986;8.894;2024-01-30T06:09:35;102689.50;;;1.75;92.96
78444;BME280;67739;52.986;8.894;2024-01-30T06:12:01;102686.81;;;1.74;93.10
78444;BME280;67739;52.986;8.894;2024-01-30T06:14:26;102693.00;;;1.73;92.70
78444;BME280;67739;52.986;8.894;2024-01-30T06:16:54;102685.06;;;1.73;92.89
78444;BME280;67739;52.986;8.894;2024-01-30T06:19:19;102690.34;;;1.73;92.88
78444;BME280;67739;52.986;8.894;2024-01-30T06:21:50;102680.63;;;1.72;93.00
78444;BME280;67739;52.986;8.894;2024-01-30T06:24:15;102689.47;;;1.74;93.12
78444;BME280;67739;52.986;8.894;2024-01-30T06:26:41;102673.59;;;1.72;92.99
78444;BME280;67739;52.986;8.894;2024-01-30T06:29:09;102678.88;;;1.74;93.01
78444;BME280;67739;52.986;8.894;2024-01-30T06:31:40;102675.34;;;1.73;93.36
78444;BME280;67739;52.986;8.894;2024-01-30T06:34:07;102678.00;;;1.73;93.35
78444;BME280;67739;52.986;8.894;2024-01-30T06:36:37;102685.97;;;1.75;93.30
78444;BME280;67739;52.986;8.894;2024-01-30T06:39:02;102680.69;;;1.76;93.22
78444;BME280;67739;52.986;8.894;2024-01-30T06:41:35;102684.28;;;1.78;93.37
78444;BME280;67739;52.986;8.894;2024-01-30T06:44:02;102676.31;;;1.78;93.32
78444;BME280;67739;52.986;8.894;2024-01-30T06:46:35;102674.56;;;1.79;93.28
78444;BME280;67739;52.986;8.894;2024-01-30T06:49:06;102673.75;;;1.82;93.18
78444;BME280;67739;52.986;8.894;2024-01-30T06:51:36;102672.88;;;1.83;93.39
78444;BME280;67739;52.986;8.894;2024-01-30T06:54:02;102661.44;;;1.84;93.65
78444;BME280;67739;52.986;8.894;2024-01-30T06:56:40;102675.59;;;1.86;93.65
78444;BME280;67739;52.986;8.894;2024-01-30T06:59:08;102668.53;;;1.88;93.81
78444;BME280;67739;52.986;8.894;2024-01-30T07:01:36;102672.97;;;1.89;93.48
78444;BME280;67739;52.986;8.894;2024-01-30T07:04:06;102680.97;;;1.92;93.70
78444;BME280;67739;52.986;8.894;2024-01-30T07:09:45;102667.78;;;1.93;93.97
78444;BME280;67739;52.986;8.894;2024-01-30T07:15:20;102666.94;;;1.96;93.76
78444;BME280;67739;52.986;8.894;2024-01-30T07:21:00;102666.97;;;1.97;93.54
78444;BME280;67739;52.986;8.894;2024-01-30T07:23:51;102669.63;;;1.97;93.86
78444;BME280;67739;52.986;8.894;2024-01-30T07:26:26;102671.41;;;1.98;93.77
78444;BME280;67739;52.986;8.894;2024-01-30T07:29:15;102677.59;;;1.99;93.73
78444;BME280;67739;52.986;8.894;2024-01-30T07:31:51;102662.63;;;2.01;93.73
78444;BME280;67739;52.986;8.894;2024-01-30T07:34:29;102668.81;;;2.03;93.71
78444;BME280;67739;52.986;8.894;2024-01-30T07:40:35;102654.75;;;2.07;93.95
78444;BME280;67739;52.986;8.894;2024-01-30T07:43:06;102656.53;;;2.08;93.96
78444;BME280;67739;52.986;8.894;2024-01-30T07:58:01;102650.56;;;2.20;94.25
78444;BME280;67739;52.986;8.894;2024-01-30T08:01:16;102644.38;;;2.19;94.22
78444;BME280;67739;52.986;8.894;2024-01-30T08:07:18;102648.00;;;2.24;94.29
78444;BME280;67739;52.986;8.894;2024-01-30T08:09:45;102655.06;;;2.25;94.26
78444;BME280;67739;52.986;8.894;2024-01-30T08:12:20;102654.19;;;2.26;94.21
78444;BME280;67739;52.986;8.894;2024-01-30T08:15:07;102646.28;;;2.28;94.38
78444;BME280;67739;52.986;8.894;2024-01-30T08:17:40;102648.97;;;2.29;94.36
78444;BME280;67739;52.986;8.894;2024-01-30T08:20:32;102643.69;;;2.31;94.45
78444;BME280;67739;52.986;8.894;2024-01-30T08:22:59;102642.81;;;2.33;94.52
78444;BME280;67739;52.986;8.894;2024-01-30T08:25:34;102642.00;;;2.37;94.65
78444;BME280;67739;52.986;8.894;2024-01-30T08:48:59;102631.06;;;2.73;95.55
78444;BME280;67739;52.986;8.894;2024-01-30T08:51:55;102630.25;;;2.80;95.66
78444;BME280;67739;52.986;8.894;2024-01-30T08:55:06;102643.59;;;2.87;95.60
78444;BME280;67739;52.986;8.894;2024-01-30T09:00:10;102638.44;;;2.97;95.84
78444;BME280;67739;52.986;8.894;2024-01-30T09:02:36;102629.66;;;3.03;95.78
78444;BME280;67739;52.986;8.894;2024-01-30T09:05:01;102640.31;;;3.09;95.94
78444;BME280;67739;52.986;8.894;2024-01-30T09:07:27;102647.50;;;3.16;96.30
78444;BME280;67739;52.986;8.894;2024-01-30T09:09:52;102635.19;;;3.23;96.28
78444;BME280;67739;52.986;8.894;2024-01-30T09:12:18;102637.03;;;3.28;96.46
78444;BME280;67739;52.986;8.894;2024-01-30T09:14:43;102637.09;;;3.36;96.65
78444;BME280;67739;52.986;8.894;2024-01-30T09:17:09;102640.75;;;3.44;96.82
78444;BME280;67739;52.986;8.894;2024-01-30T09:19:34;102647.88;;;3.51;96.68
78444;BME280;67739;52.986;8.894;2024-01-30T09:21:59;102643.53;;;3.58;96.94
78444;BME280;67739;52.986;8.894;2024-01-30T09:24:26;102648.00;;;3.65;97.13
78444;BME280;67739;52.986;8.894;2024-01-30T09:26:52;102649.00;;;3.73;97.13
78444;BME280;67739;52.986;8.894;2024-01-30T09:29:17;102642.88;;;3.81;97.10
78444;BME280;67739;52.986;8.894;2024-01-30T09:31:44;102642.94;;;3.87;97.36
78444;BME280;67739;52.986;8.894;2024-01-30T09:34:10;102638.56;;;3.94;97.41
78444;BME280;67739;52.986;8.894;2024-01-30T09:36:35;102641.28;;;4.02;97.27
78444;BME280;67739;52.986;8.894;2024-01-30T09:39:01;102645.75;;;4.09;97.25
78444;BME280;67739;52.986;8.894;2024-01-30T09:41:27;102636.06;;;4.14;97.45
78444;BME280;67739;52.986;8.894;2024-01-30T09:43:54;102644.97;;;4.20;97.56
78444;BME280;67739;52.986;8.894;2024-01-30T09:46:24;102636.16;;;4.26;97.14
78444;BME280;67739;52.986;8.894;2024-01-30T09:48:53;102637.97;;;4.32;97.60
78444;BME280;67739;52.986;8.894;2024-01-30T09:51:20;102628.25;;;4.37;97.54
78444;BME280;67739;52.986;8.894;2024-01-30T09:53:47;102622.09;;;4.42;97.55
78444;BME280;67739;52.986;8.894;2024-01-30T09:56:13;102631.88;;;4.49;97.70
78444;BME280;67739;52.986;8.894;2024-01-30T09:58:39;102638.16;;;4.57;98.07
78444;BME280;67739;52.986;8.894;2024-01-30T10:01:05;102634.63;;;4.66;98.14
78444;BME280;67739;52.986;8.894;2024-01-30T10:03:30;102626.72;;;4.72;98.21
78444;BME280;67739;52.986;8.894;2024-01-30T10:05:56;102625.84;;;4.79;98.16
78444;BME280;67739;52.986;8.894;2024-01-30T10:08:21;102620.56;;;4.87;98.32
78444;BME280;67739;52.986;8.894;2024-01-30T10:10:47;102629.44;;;4.93;98.30
78444;BME280;67739;52.986;8.894;2024-01-30T10:13:13;102627.72;;;5.00;98.23
78444;BME280;67739;52.986;8.894;2024-01-30T10:15:38;102622.41;;;5.08;98.53
78444;BME280;67739;52.986;8.894;2024-01-30T10:18:08;102621.56;;;5.13;98.29
78444;BME280;67739;52.986;8.894;2024-01-30T10:20:35;102618.94;;;5.19;98.54
78444;BME280;67739;52.986;8.894;2024-01-30T10:23:01;102626.91;;;5.25;98.26
78444;BME280;67739;52.986;8.894;2024-01-30T10:25:26;102631.38;;;5.32;98.74
78444;BME280;67739;52.986;8.894;2024-01-30T10:27:53;102621.63;;;5.39;98.47
78444;BME280;67739;52.986;8.894;2024-01-30T10:30:19;102632.31;;;5.47;98.67
78444;BME280;67739;52.986;8.894;2024-01-30T10:32:45;102631.41;;;5.54;98.55
78444;BME280;67739;52.986;8.894;2024-01-30T10:35:10;102623.47;;;5.60;98.71
78444;BME280;67739;52.986;8.894;2024-01-30T10:37:35;102618.13;;;5.66;98.70
78444;BME280;67739;52.986;8.894;2024-01-30T10:40:03;102629.69;;;5.73;98.61
78444;BME280;67739;52.986;8.894;2024-01-30T10:42:32;102619.03;;;5.80;98.74
78444;BME280;67739;52.986;8.894;2024-01-30T10:45:07;102624.38;;;5.88;98.82
78444;BME280;67739;52.986;8.894;2024-01-30T10:47:39;102613.72;;;5.94;98.96
78444;BME280;67739;52.986;8.894;2024-01-30T10:50:05;102608.41;;;6.01;99.04
78444;BME280;67739;52.986;8.894;2024-01-30T10:52:32;102620.84;;;6.09;98.60
78444;BME280;67739;52.986;8.894;2024-01-30T10:54:58;102620.84;;;6.15;98.94
78444;BME280;67739;52.986;8.894;2024-01-30T10:57:24;102612.81;;;6.21;98.72
78444;BME280;67739;52.986;8.894;2024-01-30T10:59:51;102619.06;;;6.26;98.89
78444;BME280;67739;52.986;8.894;2024-01-30T11:02:18;102617.28;;;6.32;99.05
78444;BME280;67739;52.986;8.894;2024-01-30T11:04:45;102624.34;;;6.38;99.17
78444;BME280;67739;52.986;8.894;2024-01-30T11:07:15;102618.16;;;6.45;99.02
78444;BME280;67739;52.986;8.894;2024-01-30T11:09:48;102619.88;;;6.52;98.95
78444;BME280;67739;52.986;8.894;2024-01-30T11:12:14;102619.00;;;6.59;99.22
78444;BME280;67739;52.986;8.894;2024-01-30T11:14:40;102610.97;;;6.65;99.17
78444;BME280;67739;52.986;8.894;2024-01-30T11:17:05;102615.41;;;6.72;99.42
78444;BME280;67739;52.986;8.894;2024-01-30T11:19:31;102618.91;;;6.81;99.45
78444;BME280;67739;52.986;8.894;2024-01-30T11:21:57;102614.47;;;6.89;99.17
78444;BME280;67739;52.986;8.894;2024-01-30T11:24:25;102614.41;;;6.95;99.12
78444;BME280;67739;52.986;8.894;2024-01-30T11:27:01;102611.72;;;7.04;99.32
78444;BME280;67739;52.986;8.894;2024-01-30T11:29:28;102619.69;;;7.10;99.21
78444;BME280;67739;52.986;8.894;2024-01-30T11:31:54;102620.56;;;7.17;99.46
78444;BME280;67739;52.986;8.894;2024-01-30T11:34:21;102617.84;;;7.23;99.39
78444;BME280;67739;52.986;8.894;2024-01-30T11:36:56;102611.59;;;7.30;99.42
78444;BME280;67739;52.986;8.894;2024-01-30T11:39:28;102607.06;;;7.36;99.33
78444;BME280;67739;52.986;8.894;2024-01-30T11:41:54;102596.38;;;7.42;99.49
78444;BME280;67739;52.986;8.894;2024-01-30T11:44:20;102589.22;;;7.48;99.56
78444;BME280;67739;52.986;8.894;2024-01-30T11:46:50;102597.19;;;7.55;99.40
78444;BME280;67739;52.986;8.894;2024-01-30T11:49:16;102590.91;;;7.61;99.42
78444;BME280;67739;52.986;8.894;2024-01-30T11:51:42;102590.84;;;7.67;98.94
78444;BME280;67739;52.986;8.894;2024-01-30T11:54:08;102583.69;;;7.72;99.14
78444;BME280;67739;52.986;8.894;2024-01-30T11:56:33;102576.56;;;7.77;99.08
78444;BME280;67739;52.986;8.894;2024-01-30T11:58:58;102584.50;;;7.81;99.44
78444;BME280;67739;52.986;8.894;2024-01-30T12:01:26;102572.91;;;7.86;99.23
78444;BME280;67739;52.986;8.894;2024-01-30T12:03:51;102577.31;;;7.91;99.35
78444;BME280;67739;52.986;8.894;2024-01-30T12:06:17;102579.03;;;7.95;99.09
78444;BME280;67739;52.986;8.894;2024-01-30T12:08:43;102583.47;;;7.99;99.19
78444;BME280;67739;52.986;8.894;2024-01-30T12:11:09;102591.47;;;8.02;99.10
78444;BME280;67739;52.986;8.894;2024-01-30T12:13:35;102585.19;;;8.06;99.17
78444;BME280;67739;52.986;8.894;2024-01-30T12:16:01;102594.06;;;8.10;99.05
78444;BME280;67739;52.986;8.894;2024-01-30T12:18:26;102587.78;;;8.14;98.73
78444;BME280;67739;52.986;8.894;2024-01-30T12:20:58;102598.47;;;8.15;98.58
78444;BME280;67739;52.986;8.894;2024-01-30T12:23:24;102598.44;;;8.19;98.90
78444;BME280;67739;52.986;8.894;2024-01-30T12:25:51;102587.72;;;8.22;98.86
78444;BME280;67739;52.986;8.894;2024-01-30T12:28:17;102600.16;;;8.24;98.75
78444;BME280;67739;52.986;8.894;2024-01-30T12:30:42;102603.69;;;8.28;98.54
78444;BME280;67739;52.986;8.894;2024-01-30T12:33:08;102601.91;;;8.30;98.66
78444;BME280;67739;52.986;8.894;2024-01-30T12:35:35;102609.03;;;8.34;98.72
78444;BME280;67739;52.986;8.894;2024-01-30T12:38:00;102601.84;;;8.37;98.65
78444;BME280;67739;52.986;8.894;2024-01-30T12:40:26;102603.59;;;8.40;98.82
78444;BME280;67739;52.986;8.894;2024-01-30T12:42:51;102602.69;;;8.42;98.57
78444;BME280;67739;52.986;8.894;2024-01-30T12:45:17;102600.88;;;8.46;98.68
78444;BME280;67739;52.986;8.894;2024-01-30T12:47:47;102603.53;;;8.49;98.62
78444;BME280;67739;52.986;8.894;2024-01-30T12:50:13;102594.56;;;8.51;98.55
78444;BME280;67739;52.986;8.894;2024-01-30T12:52:41;102592.75;;;8.55;98.50
78444;BME280;67739;52.986;8.894;2024-01-30T12:55:06;102587.38;;;8.58;98.49
78444;BME280;67739;52.986;8.894;2024-01-30T12:57:32;102594.47;;;8.61;98.76
78444;BME280;67739;52.986;8.894;2024-01-30T12:59:57;102579.28;;;8.63;98.62
78444;BME280;67739;52.986;8.894;2024-01-30T13:02:23;102591.72;;;8.67;98.50
78444;BME280;67739;52.986;8.894;2024-01-30T13:04:48;102589.00;;;8.70;98.57
78444;BME280;67739;52.986;8.894;2024-01-30T13:07:14;102593.44;;;8.72;98.52
78444;BME280;67739;52.986;8.894;2024-01-30T13:09:39;102578.25;;;8.74;98.42
78444;BME280;67739;52.986;8.894;2024-01-30T13:12:05;102586.25;;;8.79;98.38
78444;BME280;67739;52.986;8.894;2024-01-30T13:14:30;102579.94;;;8.81;98.59
78444;BME280;67739;52.986;8.894;2024-01-30T13:16:55;102578.13;;;8.83;98.31
78444;BME280;67739;52.986;8.894;2024-01-30T13:19:21;102589.69;;;8.87;98.24
78444;BME280;67739;52.986;8.894;2024-01-30T13:21:46;102587.00;;;8.89;98.34
78444;BME280;67739;52.986;8.894;2024-01-30T13:24:13;102578.06;;;8.91;98.28
78444;BME280;67739;52.986;8.894;2024-01-30T13:26:38;102582.47;;;8.94;98.16
78444;BME280;67739;52.986;8.894;2024-01-30T13:29:04;102582.41;;;8.97;98.57
78444;BME280;67739;52.986;8.894;2024-01-30T13:31:29;102581.50;;;8.99;98.17
78444;BME280;67739;52.986;8.894;2024-01-30T13:33:55;102589.50;;;9.02;98.50
78444;BME280;67739;52.986;8.894;2024-01-30T13:36:21;102588.56;;;9.05;98.28
78444;BME280;67739;52.986;8.894;2024-01-30T13:38:46;102586.78;;;9.07;98.28
78444;BME280;67739;52.986;8.894;2024-01-30T13:41:12;102581.34;;;9.10;98.31
78444;BME280;67739;52.986;8.894;2024-01-30T13:43:37;102575.97;;;9.11;98.19
78444;BME280;67739;52.986;8.894;2024-01-30T13:46:03;102589.31;;;9.14;98.02
78444;BME280;67739;52.986;8.894;2024-01-30T13:48:28;102583.97;;;9.16;98.00
78444;BME280;67739;52.986;8.894;2024-01-30T13:50:55;102575.00;;;9.18;97.80
78444;BME280;67739;52.986;8.894;2024-01-30T13:53:20;102568.72;;;9.21;98.05
78444;BME280;67739;52.986;8.894;2024-01-30T13:55:46;102574.94;;;9.23;98.16
78444;BME280;67739;52.986;8.894;2024-01-30T13:58:12;102575.78;;;9.25;98.12